createdAt,value
2023-02-07T00:01:25.589Z,25.70
2023-02-07T00:03:53.128Z,23.65
2023-02-07T00:06:23.066Z,22.10
2023-02-07T00:08:50.699Z,21.77
2023-02-07T00:11:20.405Z,21.52
2023-02-07T00:13:50.458Z,22.23
2023-02-07T00:18:45.181Z,21.30
2023-02-07T00:21:14.519Z,21.45
2023-02-07T00:23:42.484Z,21.40
2023-02-07T00:26:11.179Z,21.27
2023-02-07T00:28:38.927Z,19.55
2023-02-07T00:31:16.607Z,19.25
2023-02-07T00:33:45.576Z,19.67
2023-02-07T00:36:16.466Z,20.52
2023-02-07T00:38:45.253Z,20.48
2023-02-07T00:41:20.938Z,21.63
2023-02-07T00:43:48.335Z,20.42
2023-02-07T00:46:16.463Z,18.88
2023-02-07T00:48:44.134Z,19.45
2023-02-07T00:51:13.949Z,18.60
2023-02-07T00:53:41.813Z,17.92
2023-02-07T00:56:09.275Z,17.30
2023-02-07T00:58:36.879Z,15.88
2023-02-07T01:01:05.377Z,15.57
2023-02-07T01:03:33.359Z,16.58
2023-02-07T01:06:00.515Z,16.48
2023-02-07T01:08:27.842Z,16.50
2023-02-07T01:10:54.963Z,14.98
2023-02-07T01:13:22.616Z,16.80
2023-02-07T01:15:50.306Z,14.98
2023-02-07T01:18:17.517Z,15.30
2023-02-07T01:20:45.226Z,14.88
2023-02-07T01:23:13.967Z,14.68
2023-02-07T01:25:42.248Z,13.15
2023-02-07T01:28:09.378Z,13.75
2023-02-07T01:30:39.889Z,13.25
2023-02-07T01:33:08.693Z,13.65
2023-02-07T01:35:35.952Z,13.20
2023-02-07T01:38:03.278Z,12.85
2023-02-07T01:40:31.536Z,12.45
2023-02-07T01:42:59.458Z,10.85
2023-02-07T01:45:37.238Z,11.48
2023-02-07T01:48:13.565Z,10.73
2023-02-07T01:50:44.194Z,10.63
2023-02-07T01:53:14.879Z,10.13
2023-02-07T01:55:43.724Z,10.70
2023-02-07T01:58:12.195Z,10.57
2023-02-07T02:00:39.319Z,11.18
2023-02-07T02:03:06.810Z,11.23
2023-02-07T02:05:37.448Z,11.23
2023-02-07T02:08:04.995Z,10.32
2023-02-07T02:10:43.292Z,11.95
2023-02-07T02:13:17.095Z,12.48
2023-02-07T02:15:44.090Z,10.90
2023-02-07T02:18:32.731Z,11.45
2023-02-07T02:21:31.392Z,12.05
2023-02-07T02:24:17.266Z,11.38
2023-02-07T02:27:21.198Z,11.32
2023-02-07T02:30:09.010Z,11.60
2023-02-07T02:32:42.001Z,10.18
2023-02-07T02:35:22.592Z,10.93
2023-02-07T02:38:09.892Z,11.18
2023-02-07T02:40:44.542Z,10.00
2023-02-07T02:43:35.572Z,10.30
2023-02-07T02:46:12.825Z,9.85
2023-02-07T02:48:42.347Z,10.23
2023-02-07T02:51:09.883Z,10.25
2023-02-07T02:53:37.251Z,9.98
2023-02-07T02:56:20.065Z,9.75
2023-02-07T02:59:09.215Z,9.85
2023-02-07T03:01:45.361Z,9.90
2023-02-07T03:04:42.613Z,9.52
2023-02-07T03:07:42.157Z,9.20
2023-02-07T03:10:18.134Z,9.55
2023-02-07T03:12:57.916Z,10.02
2023-02-07T03:15:48.122Z,9.63
2023-02-07T03:18:52.854Z,10.43
2023-02-07T03:21:42.273Z,9.95
2023-02-07T03:24:23.667Z,9.55
2023-02-07T03:26:54.964Z,9.98
2023-02-07T03:29:24.157Z,11.30
2023-02-07T03:31:55.552Z,10.45
2023-02-07T03:34:29.789Z,10.05
2023-02-07T03:37:19.118Z,9.90
2023-02-07T03:39:46.731Z,9.63
2023-02-07T03:42:46.868Z,8.98
2023-02-07T03:47:43.573Z,8.68
2023-02-07T03:50:11.572Z,9.73
2023-02-07T03:52:38.660Z,9.68
2023-02-07T03:55:08.037Z,10.10
2023-02-07T03:57:35.594Z,9.73
2023-02-07T04:00:02.919Z,10.32
2023-02-07T04:02:40.085Z,10.00
2023-02-07T04:05:07.532Z,9.57
2023-02-07T04:07:34.838Z,9.57
2023-02-07T04:10:03.073Z,9.82
2023-02-07T04:12:33.056Z,9.40
2023-02-07T04:15:01.677Z,9.15
2023-02-07T04:17:31.289Z,8.52
2023-02-07T04:19:59.001Z,8.95
2023-02-07T04:22:26.010Z,8.60
2023-02-07T04:24:53.387Z,8.40
2023-02-07T04:27:20.725Z,8.55
2023-02-07T04:29:47.966Z,9.15
2023-02-07T04:32:15.074Z,8.38
2023-02-07T04:34:42.172Z,8.93
2023-02-07T04:37:09.330Z,8.45
2023-02-07T04:39:36.353Z,8.57
2023-02-07T04:42:03.866Z,8.40
2023-02-07T04:44:31.315Z,8.75
2023-02-07T04:46:58.449Z,7.63
2023-02-07T04:49:26.060Z,8.63
2023-02-07T04:51:53.255Z,8.02
2023-02-07T04:54:20.482Z,8.85
2023-02-07T04:56:47.577Z,8.27
2023-02-07T04:59:14.768Z,8.70
2023-02-07T05:01:41.822Z,7.47
2023-02-07T05:04:09.011Z,8.80
2023-02-07T05:06:36.137Z,8.35
2023-02-07T05:09:03.342Z,9.02
2023-02-07T05:11:30.620Z,8.18
2023-02-07T05:13:57.656Z,7.90
2023-02-07T05:16:24.751Z,8.40
2023-02-07T05:18:51.788Z,7.60
2023-02-07T05:21:19.175Z,8.23
2023-02-07T05:23:46.311Z,7.70
2023-02-07T05:26:13.494Z,8.40
2023-02-07T05:28:40.561Z,9.20
2023-02-07T05:31:07.700Z,8.35
2023-02-07T05:33:34.726Z,8.65
2023-02-07T05:36:05.358Z,8.30
2023-02-07T05:38:32.675Z,9.52
2023-02-07T05:41:00.153Z,8.45
2023-02-07T05:43:27.338Z,8.70
2023-02-07T05:45:54.449Z,8.60
2023-02-07T05:48:21.696Z,8.80
2023-02-07T05:50:48.831Z,8.55
2023-02-07T05:53:15.776Z,8.07
2023-02-07T05:55:42.912Z,7.78
2023-02-07T05:58:09.976Z,6.80
2023-02-07T06:00:37.124Z,7.40
2023-02-07T06:03:04.358Z,8.32
2023-02-07T06:05:33.254Z,7.70
2023-02-07T06:08:00.358Z,8.20
2023-02-07T06:10:27.372Z,8.60
2023-02-07T06:12:54.748Z,7.90
2023-02-07T06:15:21.782Z,7.65
2023-02-07T06:17:48.950Z,7.10
2023-02-07T06:20:16.167Z,7.32
2023-02-07T06:22:43.360Z,7.88
2023-02-07T06:25:12.058Z,7.28
2023-02-07T06:27:41.405Z,7.15
2023-02-07T06:30:11.123Z,7.32
2023-02-07T06:32:38.521Z,6.88
2023-02-07T06:35:06.808Z,7.82
2023-02-07T06:37:34.075Z,7.20
2023-02-07T06:40:01.148Z,7.40
2023-02-07T06:42:28.303Z,7.43
2023-02-07T06:44:55.368Z,7.88
2023-02-07T06:47:23.133Z,7.95
2023-02-07T06:49:50.260Z,7.38
2023-02-07T06:52:17.765Z,6.95
2023-02-07T06:54:44.925Z,7.50
2023-02-07T06:57:12.013Z,7.22
2023-02-07T06:59:39.115Z,6.93
2023-02-07T07:02:06.311Z,7.00
2023-02-07T07:04:33.473Z,6.22
2023-02-07T07:07:00.574Z,6.40
2023-02-07T07:09:27.668Z,5.47
2023-02-07T07:11:54.812Z,7.20
2023-02-07T07:14:21.870Z,5.72
2023-02-07T07:16:49.106Z,5.68
2023-02-07T07:19:16.459Z,5.85
2023-02-07T07:21:43.607Z,4.68
2023-02-07T07:24:10.713Z,4.90
2023-02-07T07:26:48.845Z,5.03
2023-02-07T07:29:18.578Z,4.37
2023-02-07T07:31:46.819Z,4.70
2023-02-07T07:34:14.554Z,4.50
2023-02-07T07:36:41.739Z,4.97
2023-02-07T07:39:09.226Z,4.90
2023-02-07T07:41:36.625Z,4.60
2023-02-07T07:44:03.823Z,4.70
2023-02-07T07:46:31.008Z,4.25
2023-02-07T07:48:58.250Z,3.78
2023-02-07T07:51:25.632Z,3.70
2023-02-07T07:53:52.779Z,3.83
2023-02-07T07:56:19.880Z,3.13
2023-02-07T07:58:48.630Z,4.00
2023-02-07T08:01:16.050Z,4.43
2023-02-07T08:03:43.268Z,4.10
2023-02-07T08:06:10.338Z,3.92
2023-02-07T08:08:37.433Z,3.58
2023-02-07T08:11:07.098Z,3.75
2023-02-07T08:13:34.212Z,6.13
2023-02-07T08:16:02.635Z,4.70
2023-02-07T08:18:30.153Z,4.43
2023-02-07T08:20:57.542Z,3.80
2023-02-07T08:23:24.770Z,3.17
2023-02-07T08:25:51.927Z,3.10
2023-02-07T08:28:19.953Z,3.03
2023-02-07T08:30:50.072Z,2.80
2023-02-07T08:35:44.513Z,3.25
2023-02-07T08:38:11.699Z,2.63
2023-02-07T08:40:39.329Z,2.05
2023-02-07T08:43:12.551Z,2.00
2023-02-07T08:45:47.034Z,2.35
2023-02-07T08:48:14.541Z,2.67
2023-02-07T08:50:41.810Z,2.45
2023-02-07T08:53:09.337Z,2.70
2023-02-07T08:55:36.581Z,2.78
2023-02-07T08:58:04.992Z,3.20
2023-02-07T09:00:32.392Z,3.05
2023-02-07T09:02:59.429Z,3.60
2023-02-07T09:05:26.530Z,2.90
2023-02-07T09:07:53.603Z,3.53
2023-02-07T09:10:20.857Z,3.28
2023-02-07T09:12:47.910Z,2.95
2023-02-07T09:15:15.228Z,3.00
2023-02-07T09:17:42.273Z,2.70
2023-02-07T09:20:10.419Z,2.47
2023-02-07T09:22:57.415Z,2.25
2023-02-07T09:25:25.165Z,2.17
2023-02-07T09:27:52.700Z,2.45
2023-02-07T09:30:19.884Z,2.60
2023-02-07T09:32:47.065Z,2.88
2023-02-07T09:35:14.215Z,2.58
2023-02-07T09:37:49.243Z,2.83
2023-02-07T09:40:19.415Z,3.05
2023-02-07T09:42:55.803Z,3.70
2023-02-07T09:45:27.435Z,3.10
2023-02-07T09:48:02.248Z,3.67
2023-02-07T09:50:34.681Z,5.32
2023-02-07T09:53:25.507Z,4.10
2023-02-07T09:56:02.098Z,4.28
2023-02-07T09:58:39.920Z,4.10
2023-02-07T10:01:16.028Z,4.20
2023-02-07T10:04:05.583Z,3.17
2023-02-07T10:06:33.586Z,2.15
2023-02-07T10:09:01.439Z,2.15
2023-02-07T10:11:40.429Z,1.65
2023-02-07T10:14:10.263Z,1.92
2023-02-07T10:16:52.288Z,2.10
2023-02-07T10:20:00.948Z,1.92
2023-02-07T10:23:13.651Z,1.92
2023-02-07T10:25:58.798Z,1.65
2023-02-07T10:29:07.330Z,1.58
2023-02-07T10:31:39.300Z,1.60
2023-02-07T10:34:21.684Z,1.60
2023-02-07T10:36:51.893Z,2.47
2023-02-07T10:41:56.094Z,2.05
2023-02-07T10:44:24.289Z,2.22
2023-02-07T10:46:59.609Z,3.20
2023-02-07T10:49:29.869Z,3.85
2023-02-07T10:54:29.996Z,3.30
2023-02-07T10:57:02.551Z,3.33
2023-02-07T10:59:46.110Z,2.92
2023-02-07T11:02:34.068Z,2.55
2023-02-07T11:05:25.902Z,2.70
2023-02-07T11:08:04.956Z,3.05
2023-02-07T11:10:42.367Z,3.33
2023-02-07T11:13:21.447Z,3.35
2023-02-07T11:16:00.133Z,3.40
2023-02-07T11:19:08.286Z,3.28
2023-02-07T11:21:41.057Z,3.45
2023-02-07T11:24:12.904Z,3.53
2023-02-07T11:27:12.827Z,3.20
2023-02-07T11:30:06.901Z,3.72
2023-02-07T11:32:36.565Z,3.92
2023-02-07T11:35:09.819Z,3.72
2023-02-07T11:37:39.896Z,4.22
2023-02-07T11:40:36.601Z,4.40
2023-02-07T11:43:17.830Z,4.03
2023-02-07T11:45:52.528Z,4.28
2023-02-07T11:48:26.241Z,4.30
2023-02-07T11:50:56.122Z,4.88
2023-02-07T11:53:27.480Z,3.58
2023-02-07T11:55:56.761Z,3.65
2023-02-07T11:58:42.217Z,3.53
2023-02-07T12:01:09.684Z,3.33
2023-02-07T12:03:49.796Z,3.20
2023-02-07T12:06:20.339Z,3.30
2023-02-07T12:08:48.098Z,3.13
2023-02-07T12:11:21.066Z,3.92
2023-02-07T12:13:53.852Z,5.68
2023-02-07T12:16:29.739Z,4.38
2023-02-07T12:19:21.841Z,3.13
2023-02-07T12:21:55.376Z,3.47
2023-02-07T12:24:34.968Z,2.63
2023-02-07T12:27:18.072Z,3.33
2023-02-07T12:30:17.814Z,4.75
2023-02-07T12:32:58.763Z,5.50
2023-02-07T12:35:36.542Z,5.97
2023-02-07T12:38:28.548Z,5.68
2023-02-07T12:41:48.047Z,6.20
2023-02-07T12:44:31.288Z,5.82
2023-02-07T12:47:05.168Z,6.78
2023-02-07T12:49:56.959Z,6.10
2023-02-07T12:52:48.749Z,6.25
2023-02-07T12:55:59.850Z,4.82
2023-02-07T12:59:09.802Z,5.47
2023-02-07T13:01:45.806Z,5.43
2023-02-07T13:04:42.137Z,5.95
2023-02-07T13:07:14.935Z,4.47
2023-02-07T13:10:01.276Z,5.55
2023-02-07T13:12:49.402Z,6.05
2023-02-07T13:15:48.871Z,5.93
2023-02-07T13:19:00.520Z,7.50
2023-02-07T13:21:49.224Z,6.35
2023-02-07T13:24:22.093Z,5.80
2023-02-07T13:26:54.579Z,6.20
2023-02-07T13:29:24.039Z,5.60
2023-02-07T13:31:56.534Z,6.25
2023-02-07T13:34:26.772Z,11.65
2023-02-07T13:36:54.240Z,10.43
2023-02-07T13:39:44.290Z,7.18
2023-02-07T13:45:18.397Z,7.68
2023-02-07T13:47:50.836Z,7.75
2023-02-07T13:51:02.604Z,7.15
2023-02-07T13:53:41.995Z,6.70
2023-02-07T13:56:30.949Z,7.03
2023-02-07T13:59:17.186Z,7.25
2023-02-07T14:01:51.262Z,7.30
2023-02-07T14:04:19.848Z,6.63
2023-02-07T14:07:03.096Z,7.07
2023-02-07T14:09:36.261Z,7.75
2023-02-07T14:12:08.089Z,7.25
2023-02-07T14:14:39.315Z,7.10
2023-02-07T14:17:07.848Z,7.38
2023-02-07T14:19:40.719Z,6.47
2023-02-07T14:22:40.550Z,6.78
2023-02-07T14:25:07.663Z,10.45
2023-02-07T14:27:40.576Z,9.30
2023-02-07T14:30:13.406Z,8.18
2023-02-07T14:32:43.328Z,7.65
2023-02-07T14:35:19.752Z,7.22
2023-02-07T14:38:05.090Z,6.93
2023-02-07T14:40:36.554Z,7.65
2023-02-07T14:43:18.942Z,8.20
2023-02-07T14:46:08.866Z,7.50
2023-02-07T14:48:41.984Z,8.27
2023-02-07T14:51:14.795Z,7.35
2023-02-07T14:53:45.337Z,7.40
2023-02-07T14:56:40.754Z,7.78
2023-02-07T14:59:12.477Z,7.15
2023-02-07T15:01:39.622Z,7.55
2023-02-07T15:04:10.808Z,6.85
2023-02-07T15:06:45.669Z,7.13
2023-02-07T15:09:41.972Z,6.95
2023-02-07T15:12:22.376Z,6.75
2023-02-07T15:14:57.172Z,6.85
2023-02-07T15:17:33.416Z,6.65
2023-02-07T15:20:03.414Z,7.63
2023-02-07T15:22:30.655Z,7.53
2023-02-07T15:24:59.688Z,7.50
2023-02-07T15:27:29.142Z,8.00
2023-02-07T15:30:11.804Z,7.70
2023-02-07T15:32:46.483Z,7.90
2023-02-07T15:35:19.025Z,8.13
2023-02-07T15:37:47.557Z,7.53
2023-02-07T15:40:17.761Z,8.48
2023-02-07T15:42:58.717Z,8.10
2023-02-07T15:45:30.630Z,8.45
2023-02-07T15:48:10.149Z,8.23
2023-02-07T15:50:38.516Z,8.70
2023-02-07T15:53:08.726Z,8.10
2023-02-07T15:55:48.318Z,9.05
2023-02-07T15:58:28.994Z,8.50
2023-02-07T16:01:01.890Z,9.32
2023-02-07T16:03:34.638Z,9.45
2023-02-07T16:06:23.620Z,9.02
2023-02-07T16:08:54.146Z,8.15
2023-02-07T16:11:27.157Z,8.68
2023-02-07T16:14:03.494Z,8.63
2023-02-07T16:16:34.883Z,9.00
2023-02-07T16:19:24.915Z,9.23
2023-02-07T16:21:58.534Z,10.35
2023-02-07T16:24:29.049Z,10.88
2023-02-07T16:26:58.701Z,10.65
2023-02-07T16:29:26.659Z,11.00
2023-02-07T16:31:55.111Z,9.95
2023-02-07T16:34:23.951Z,10.77
2023-02-07T16:36:55.928Z,10.68
2023-02-07T16:39:26.183Z,12.00
2023-02-07T16:42:01.840Z,13.35
2023-02-07T16:44:31.324Z,12.13
2023-02-07T16:46:58.534Z,11.13
2023-02-07T16:49:27.187Z,12.27
2023-02-07T16:51:54.496Z,13.30
2023-02-07T16:54:21.977Z,14.43
2023-02-07T16:57:03.561Z,13.75
2023-02-07T16:59:31.094Z,13.52
2023-02-07T17:01:58.264Z,14.73
2023-02-07T17:04:25.428Z,14.95
2023-02-07T17:06:52.547Z,15.05
2023-02-07T17:09:24.922Z,16.90
2023-02-07T17:11:53.381Z,15.95
2023-02-07T17:14:21.087Z,16.33
2023-02-07T17:16:48.421Z,17.33
2023-02-07T17:19:18.439Z,16.02
2023-02-07T17:21:46.457Z,16.20
2023-02-07T17:24:14.092Z,16.90
2023-02-07T17:26:46.465Z,15.90
2023-02-07T17:29:15.430Z,16.85
2023-02-07T17:31:43.608Z,15.75
2023-02-07T17:34:10.851Z,17.45
2023-02-07T17:36:40.310Z,16.02
2023-02-07T17:39:10.949Z,17.95
2023-02-07T17:41:38.526Z,16.20
2023-02-07T17:44:06.069Z,13.70
2023-02-07T17:46:33.728Z,16.15
2023-02-07T17:49:01.437Z,16.00
2023-02-07T17:51:29.239Z,15.13
2023-02-07T17:53:56.653Z,16.23
2023-02-07T17:56:27.610Z,15.45
2023-02-07T17:58:56.722Z,15.43
2023-02-07T18:01:24.207Z,16.85
2023-02-07T18:03:54.013Z,16.13
2023-02-07T18:06:24.966Z,15.73
2023-02-07T18:08:53.763Z,16.88
2023-02-07T18:11:22.522Z,16.42
2023-02-07T18:13:49.524Z,15.77
2023-02-07T18:16:19.781Z,16.35
2023-02-07T18:18:46.873Z,15.35
2023-02-07T18:21:14.068Z,16.45
2023-02-07T18:23:43.178Z,16.40
2023-02-07T18:26:15.380Z,15.43
2023-02-07T18:28:44.032Z,15.98
2023-02-07T18:31:16.200Z,15.00
2023-02-07T18:33:43.558Z,16.52
2023-02-07T18:36:10.925Z,16.13
2023-02-07T18:38:38.489Z,17.35
2023-02-07T18:41:13.651Z,15.52
2023-02-07T18:43:41.601Z,16.55
2023-02-07T18:46:15.069Z,15.52
2023-02-07T18:48:45.037Z,15.48
2023-02-07T18:51:14.682Z,15.88
2023-02-07T18:53:42.605Z,14.73
2023-02-07T18:56:18.903Z,15.45
2023-02-07T18:58:47.111Z,15.40
2023-02-07T19:01:19.289Z,15.20
2023-02-07T19:03:58.679Z,15.18
2023-02-07T19:06:31.092Z,16.13
2023-02-07T19:08:58.369Z,14.70
2023-02-07T19:11:26.778Z,15.75
2023-02-07T19:13:55.132Z,15.75
2023-02-07T19:16:24.757Z,15.80
2023-02-07T19:18:51.889Z,14.85
2023-02-07T19:21:26.940Z,15.80
2023-02-07T19:23:56.097Z,15.32
2023-02-07T19:26:24.668Z,15.68
2023-02-07T19:28:53.073Z,14.45
2023-02-07T19:31:21.122Z,15.15
2023-02-07T19:33:49.995Z,16.55
2023-02-07T19:36:18.542Z,16.60
2023-02-07T19:38:48.756Z,16.13
2023-02-07T19:41:19.034Z,16.25
2023-02-07T19:43:46.545Z,15.68
2023-02-07T19:46:13.706Z,16.58
2023-02-07T19:48:40.913Z,16.23
2023-02-07T19:51:12.068Z,16.67
2023-02-07T19:53:39.263Z,17.20
2023-02-07T19:56:11.545Z,16.35
2023-02-07T19:58:41.674Z,17.77
2023-02-07T20:03:36.012Z,15.02
2023-02-07T20:06:05.240Z,16.20
2023-02-07T20:08:34.191Z,16.40
2023-02-07T20:11:15.002Z,16.33
2023-02-07T20:13:44.707Z,15.38
2023-02-07T20:16:26.447Z,15.88
2023-02-07T20:18:54.182Z,16.20
2023-02-07T20:21:24.562Z,17.52
2023-02-07T20:23:53.484Z,16.88
2023-02-07T20:26:23.900Z,17.38
2023-02-07T20:28:51.431Z,15.68
2023-02-07T20:31:22.580Z,17.30
2023-02-07T20:33:50.338Z,24.52
2023-02-07T20:36:18.880Z,19.88
2023-02-07T20:38:47.251Z,17.08
2023-02-07T20:41:29.402Z,16.70
2023-02-07T20:43:57.754Z,16.08
2023-02-07T20:46:26.276Z,16.55
2023-02-07T20:49:01.583Z,15.82
2023-02-07T20:51:30.042Z,16.45
2023-02-07T20:53:59.493Z,15.50
2023-02-07T20:56:27.996Z,16.52
2023-02-07T20:58:55.536Z,15.18
2023-02-07T21:01:24.889Z,16.05
2023-02-07T21:03:53.657Z,16.70
2023-02-07T21:06:25.421Z,16.05
2023-02-07T21:09:00.622Z,15.63
2023-02-07T21:11:28.999Z,16.05
2023-02-07T21:13:56.341Z,16.27
2023-02-07T21:16:23.805Z,16.50
2023-02-07T21:18:51.126Z,16.15
2023-02-07T21:21:19.239Z,15.82
2023-02-07T21:23:46.453Z,15.32
2023-02-07T21:26:15.411Z,15.13
2023-02-07T21:28:44.173Z,15.50
2023-02-07T21:31:21.493Z,15.48
2023-02-07T21:33:52.154Z,15.40
2023-02-07T21:36:24.622Z,16.00
2023-02-07T21:38:53.356Z,16.55
2023-02-07T21:41:26.239Z,16.00
2023-02-07T21:43:58.180Z,15.63
2023-02-07T21:46:28.384Z,16.92
2023-02-07T21:51:29.410Z,16.30
2023-02-07T21:53:57.818Z,16.70
2023-02-07T21:56:27.529Z,15.80
2023-02-07T21:59:06.890Z,16.17
2023-02-07T22:01:37.073Z,16.00
2023-02-07T22:06:32.555Z,14.73
2023-02-07T22:09:01.487Z,15.77
2023-02-07T22:11:31.559Z,15.15
2023-02-07T22:13:59.188Z,14.60
2023-02-07T22:16:28.552Z,16.77
2023-02-07T22:18:57.019Z,15.48
2023-02-07T22:21:26.738Z,15.52
2023-02-07T22:23:54.430Z,15.13
2023-02-07T22:26:21.993Z,16.90
2023-02-07T22:28:49.974Z,15.05
2023-02-07T22:31:20.040Z,15.77
2023-02-07T22:36:20.183Z,15.00
2023-02-07T22:38:47.705Z,15.20
2023-02-07T22:41:15.502Z,15.18
2023-02-07T22:43:42.852Z,13.90
2023-02-07T22:46:14.735Z,14.82
2023-02-07T22:48:42.986Z,14.90
2023-02-07T22:51:34.368Z,13.32
2023-02-07T22:54:07.131Z,14.82
2023-02-07T22:56:36.680Z,12.13
2023-02-07T22:59:05.013Z,10.68
2023-02-07T23:01:34.705Z,11.38
2023-02-07T23:04:03.750Z,10.75
2023-02-07T23:06:32.764Z,11.85
2023-02-07T23:09:00.439Z,11.18
2023-02-07T23:11:27.820Z,12.30
2023-02-07T23:13:55.818Z,13.45
2023-02-07T23:16:26.781Z,11.43
2023-02-07T23:18:59.307Z,11.75
2023-02-07T23:21:26.833Z,12.32
2023-02-07T23:23:54.178Z,13.38
2023-02-07T23:26:23.380Z,11.48
2023-02-07T23:28:52.174Z,11.55
2023-02-07T23:31:21.375Z,13.48
2023-02-07T23:33:48.691Z,12.67
2023-02-07T23:36:17.696Z,14.70
2023-02-07T23:38:46.068Z,14.90
2023-02-07T23:41:13.223Z,14.80
2023-02-07T23:43:40.392Z,16.50
2023-02-07T23:46:08.544Z,15.48
2023-02-07T23:48:38.633Z,16.85
2023-02-07T23:51:07.101Z,16.67
2023-02-07T23:53:34.396Z,17.58
2023-02-07T23:56:03.453Z,17.23
2023-02-07T23:58:30.760Z,18.35
